Weather at Rochefort Soubise Airfield [CLOSED]

Public forecast

Using degrees Celsius for public forecast. Weather courtesy of forecast.io.

Closest aviation weather report (METAR) to Rochefort Soubise Airfield

Closest report is La Rochelle-Île de Ré Airport, 17.1 nm (31.6 km) NNW. Retrieved 2021/11/29 04:30 UTC (26 minutes ago):

LFBH 290430Z AUTO 19004KT 7000 -RA OVC027 04/04 Q1012 TEMPO 3000 SHRA BKN020TCU BECMG 02010KT

Closest aviation forecast (TAF) to Rochefort Soubise Airfield

Closest forecast is La Rochelle-Île de Ré Airport, 17.1 nm (31.6 km) NNW. Retrieved 2021-11-29 00:42 UTC (4 hours ago):

TAF LFBH 282300Z 2900/2924 03005KT CAVOK BECMG 2900/2902 VRB03KT PROB40 TEMPO 2903/2906 3000 SHRA BKN020TCU BECMG 2906/2908 02010KT BKN015 TEMPO 2906/2910 BKN005 BECMG 2915/2917 CAVOK